Requested Movies (376)

Sl No Movie Name Movie Category Download Date & Time
1 Baaghi (2016) 1080p BluRay Hindi Movie Download 2019-11-28 11:58:17
2 Adobe Photoshop Collection Software Download 2019-11-28 11:56:37
3 Raid (2018) 1080p BluRay Hindi Movie Download 2019-11-18 22:29:15
4 Zero (2018) 1080p BluRay Hindi Movie Download 2019-11-18 22:28:17
5 Khandaani Shafakhana (2019) WEB-DL Hindi Movie Download 2019-11-18 22:27:53
6 Love, Death & Robots (2019) Season 1 Animation Movie Download 2019-11-18 22:27:12
7 Van Helsing (2004) English Movie Download 2019-11-18 22:26:23
8 Petta (2019) HDRip Tamil & Telegu Movie Download 2019-11-18 22:25:54
9 The Last Witch Hunter (2015) 1080p BluRay English Movie Download 2019-11-18 22:25:33
10 Maleficent (2014) 1080p BluRay English Movie Download 2019-11-18 22:24:47
11 Maleficent: Mistress of Evil (2019) HDCAM English Movie Download 2019-11-18 22:24:08
12 K.G.F: Chapter 1 (2018) WEB-DL Tamil & Telegu Movie Download 2019-11-17 16:01:41
13 Super 30 (2019) DVDRip Hindi Movie Download 2019-11-17 16:00:39
14 Spider-Man Homecoming (2017) 1080p BluRay English Movie Download 2019-11-17 16:00:17
15 Love (2015) Hindi Movie Download 2019-11-17 15:59:16
16 Sacred Games Season 1&2 Dual Audio Hindi Tv Series Download 2019-10-01 13:48:59
17 Laaga Chunari Mein Daag (2007) Hindi Movie Download 2019-10-01 13:43:49
18 Love (2015) English Movie Download 2019-10-01 13:15:55
19 Dream Girl (2019) CAMRip Hindi Movie Download 2019-10-01 13:14:38
20 Chandni (1989) Hindi Movie Download 2019-10-01 13:13:32
21 Brahmotsavam (2016) 720p BluRay Hindi Dubbed Tamil & Telegu Movie Download 2019-10-01 13:07:09
22 Arn Tempelriddaren (2007) Foreign Movie Download 2019-10-01 13:06:15
23 Shrek all movies Animation Movie Download 2019-10-01 13:04:09
24 Ice Age All Animation Movies Animation Movie Download 2019-10-01 13:00:17
25 Praktan (2016) DVDRip Indian Bangla Movie Download 2019-10-01 12:57:47
26 Belaseshe (2015) DVDRip Indian Bangla Movie Download 2019-10-01 12:55:22
27 Kadaram Kondan (2019) WEBRip Tamil & Telegu Movie Download 2019-10-01 12:41:25
28 Charlie (2015) HDRip Tamil & Telegu Movie Download 2019-10-01 12:39:36
29 Charlie (2015) HDRip Tamil & Telegu Movie Download 2019-09-22 11:50:50
30 Area 51 (2015) 720p BluRay Hindi Dubbed Hindi Dubbed Movie Download 2019-09-22 10:33:04
31 Kingsman The Golden Circle (2017) 720p BluRay English Movie Download 2019-09-22 10:31:52
32 Maharshi (2019) WEB-HD Tamil & Telegu Movie Download 2019-09-22 10:31:16
33 Kaashi in Search of Ganga (2018) Hindi Movie Download 2019-09-22 10:30:56
34 It (2017) 720p BluRay English Movie Download 2019-09-22 10:30:19
35 Game of Thrones Season 8 Complete English Tv Series Download 2019-09-22 10:29:39
36 Friends season 1,2,3,4,5,6,7,8,9,10 Complete English Tv Series Download 2019-09-22 10:28:54
37 Chasing Liberty (2004) English Movie Download 2019-09-22 10:28:07
38 Peaky Blinders Season 1,2,3,4 Complete English Tv Series Download 2019-09-22 10:27:25
39 Special 26 (2013) Hindi Movie Download 2019-06-10 17:46:48
40 Student of the Year 2 (2019) CAMRip Hindi Movie Download 2019-05-15 18:09:03
41 Titanic (1997) 720p Bluray English Movie Download 2019-05-15 18:01:58
42 Pokémon Detective Pikachu (2019) HDCAM English Movie Download 2019-05-15 18:01:02
43 Shah Jahan Regency (2019) Bangla Tv Series Download 2019-05-15 18:00:32
44 Oh! Mother (2018) Addatimes Season 1 Bangla Tv Series Download 2019-04-18 17:38:00
45 King Arthur Collection English Movie Download 2019-04-18 17:12:01
46 Torque (2004) 720p BluRay Hindi Dubbed English Movie Download 2019-04-18 17:02:38
47 Raazi (2018) 1080p BluRay Hindi Movie Download 2019-04-18 17:01:18
48 Sanam Teri Kasam (2015) Hindi Movie Download 2019-04-18 16:59:18
49 Devdas (2002) Hindi Movie Download 2019-04-18 16:58:37
50 It (2017) Dual Audio English Movie Download 2019-04-14 19:59:09
51 Mostly Sunny (2016) WEBRip Hindi Movie Download 2019-04-14 19:56:41
52 Friends Season 1,2,3,4,5,6,7,8,9,10 Complete English Tv Series Download 2019-04-14 19:56:00
53 Slumdog Millionaire (2008) 720p BluRay Hindi Dubbed English Movie Download 2019-04-14 19:53:41
54 Fifa 19 - CPY - Crack Only PC Games Download 2019-04-14 19:52:47
55 Chronicles of the Ghostly Tribe (2015) English Movie Download 2019-04-14 19:52:01
56 Ra.One (2011) 1080p BluRay Hindi Movie Download 2019-04-14 19:51:30
57 Mektoub, My Love: Canto Uno (2017) 720p BluRay Foreign Movie Download 2019-04-14 19:50:47
58 The Amazing Spider-Man (2012) 1080p BluRay English Movie Download 2019-04-11 11:09:36
59 Gangs of Wasseypur I & 2 Hindi Movie Download 2019-04-11 11:08:52
60 WWE WrestleMania 35 Kickoff Sport Heighlight Download 2019-04-11 11:08:11
61 Total Dadagiri (2018) HDRip Indian Bangla Movie Download 2019-04-11 11:07:39
62 It's a Wonderful Life (1946) 1080p BluRay English Movie Download 2019-04-11 11:06:40
63 Asura (2018) HDRip China Movie Download 2019-04-11 11:05:48
64 Forza Horizon 3 PC Games PC Games Download 2019-04-11 11:05:14
65 Badhaai Ho (2018) 720p BluRay Hindi Movie Download 2019-04-06 20:16:33
66 Love (2015) 1080p BluRay English Movie Download 2019-04-06 20:14:59
67 The Dictator (2012) 720p BluRay English Movie Download 2019-04-06 20:13:58
68 Padman (2018) 1080p BluRay Hindi Movie Download 2019-04-06 20:13:02
69 Spider-Man Movie Sequels English Movie Download 2019-04-06 20:09:33
70 Simmba (2018) DVDRip Hindi Movie Download 2019-04-06 20:08:25
71 Shazam! (2019) HDCAM English Movie Download 2019-04-06 20:02:00
72 Boom (2003) Hindi Movie Download 2019-04-06 20:01:31
73 Microsoft Office Professional Plus 2019 (x86+x64) Software Download 2019-04-06 20:00:38
74 Goynar Baksho (2013) Indian Bangla Movie Download 2019-04-06 19:59:01
75 Now You See Me 1 & 2 English Movie Download 2019-04-06 19:56:58
76 The Mermaid (2016) 720p BluRay Hindi Dubbed Foreign Movie Download 2019-04-06 19:56:12
77 The Treacherous (2015) 720p BluRay Foreign Movie Download 2019-04-04 15:08:10
78 2.0 (2018) HDRip Hindi Dubbed Hindi Movie Download 2019-04-04 15:07:35
79 K.G.F: Chapter 1 (2018) Hindi Dubbed Tamil & Telegu Movie Download 2019-04-04 15:06:37
80 Spider-man Movie Collection English Movie Download 2019-04-04 15:06:10
81 Viswasam (2019) Tamil & Telegu Movie Download 2019-04-04 15:05:18
82 Hum Aapke Hain Koun (1994) Hindi Movie Download 2019-04-04 15:03:41
83 Wanted (2008) 720p BluRay English Movie Download 2019-04-04 15:02:02
84 Far Cry 3-RELOADED PC Games PC Games Download 2019-04-04 15:00:19
85 Aquaman (2018) Dual Audio English Movie Download 2019-04-04 14:59:37
86 How to Train Your Dragon: The Hidden World (2019) HDRip Animation Movie Download 2019-04-03 13:17:10
87 Life Is Beautiful (1997) Hindi Dubbed Foreign Movie Download 2019-04-03 13:16:17
88 13 Reasons Why Season 1 & 2 English Tv Series Download 2019-04-03 13:14:38
89 Andhadhun (2018) 720p BluRay Hindi Movie Download 2019-04-02 18:14:04
90 Adobe Illustrator CC 2017 (32 & 64bit) Software Download 2019-04-02 18:07:32
91 Blindspot Season 1,2 Complete English Tv Series Download 2019-04-02 18:06:37
92 Avengers Infinity War (2018) 720p BluRay English Movie Download 2019-04-02 17:46:36
93 Happy Phirr Bhag Jayegi (2018) 720p BluRay Hindi Movie Download 2019-03-31 11:03:23
94 Vinaya Vidheya Rama (2019) WEB-HD Tamil & Telegu Movie Download 2019-03-31 11:02:49
95 K.G.F: Chapter 1 (2018) Hindi Dubbed Hindi Movie Download 2019-03-31 10:59:44
96 Junga The Real Don (2019) Hindi Dubbed Tamil & Telegu Movie Download 2019-03-31 10:59:14
97 PK (2014) 1080p BluRay Hindi Movie Download 2019-03-28 14:22:26
98 Thaanaa Serndha Koottam (2018) 720p BluRay Tamil & Telegu Movie Download 2019-03-28 14:21:20
99 Guardian The Lonely and Great God Season 1 Complete Korean Movie Download 2019-03-27 18:19:47
100 Race (2008) 720p BluRay Hindi Movie Download 2019-03-27 18:16:03
101 Goliyon Ki Rasleela Ram-Leela (2013) 1080p BluRay Hindi Movie Download 2019-03-27 18:14:39
102 The Mummy (1999) Hindi Dubbed English Movie Download 2019-03-27 18:12:01
103 Delhi Crime (2019) Season 1 Hindi Tv Series Download 2019-03-26 13:57:41
104 Goliyon Ki Rasleela Ram-Leela (2013) Hindi Movie Download 2019-03-26 13:57:17
105 WALL·E (2008) 1080p BluRay Animation Movie Download 2019-03-26 13:56:42
106 No Mercy (2010) Korean Movie Download 2019-03-26 13:56:03
107 Gully Boy (2019) CAMRip Hindi Movie Download 2019-03-26 13:55:03
108 Hello Guru Prema Kosame (2018) Tamil & Telegu Movie Download 2019-03-26 13:54:26
109 The Avengers (2012) 1080p BluRay English Movie Download 2019-03-26 13:53:55
110 Sacred Games Season 1 Complete Hindi Tv Series Download 2019-03-26 13:53:07
111 Roy (2015) 720p BluRay Hindi Movie Download 2019-03-26 13:50:10
112 Hate Story 3 (2015) Hindi Movie Download 2019-03-26 13:49:09
113 Wanted (2009) Hindi Movie Download 2019-03-23 14:58:17
114 Aadupuliyattam (2016) Dual Audio Tamil & Telegu Movie Download 2019-03-23 14:57:18
115 A Moment to Remember (2004) Foreign Movie Download 2019-03-23 14:56:42
116 The Twilight Saga Eclipse (2010) 720p BluRay Hindi Dubbed English Movie Download 2019-03-23 14:55:35
117 Raazi (2018) 1080p BluRay Hindi Movie Download 2019-03-23 14:54:29
118 Sonu Ke Titu Ki Sweety (2018) DVDRip Hindi Movie Download 2019-03-23 14:53:12
119 Ode to My Father (2014) Korean Movie Download 2019-03-23 14:52:28
120 Grand Masti (2013) 720p BluRay Hindi Movie Download 2019-03-23 14:51:33
121 Baaghi 2 (2018) 1080p BluRay Hindi Movie Download 2019-03-23 14:49:53
122 Bohemian Rhapsody (2018) 720p BluRay English Movie Download 2019-03-23 14:48:12
123 Paddington 2 (2017) Animation Movie Download 2019-03-19 12:54:29
124 Kedarnath (2018) WEB-DL Hindi Movie Download 2019-03-19 12:37:42
125 Her (2013) Dual Audio English Movie Download 2019-03-19 12:37:02
126 The Mummy (1999) English Movie Download 2019-03-19 12:35:39
127 Skyscraper (2018) 1080p BluRay English Movie Download 2019-03-19 12:33:25
128 Crank: High Voltage (2009) English Movie Download 2019-03-19 12:29:50
129 Tholi Prema (2018) WEB-HD Tamil & Telegu Movie Download 2019-03-18 12:45:47
130 Captain Marvel (2019) HDCAM English Movie Download 2019-03-18 12:45:16
131 Sanju (2018) 1080p BluRay Hindi Movie Download 2019-03-18 12:44:43
132 Wonder (2017) 720p BluRay English Movie Download 2019-03-18 12:44:04
133 The Mummy (1999) 720p Blu-Ray Hindi Dubbed English Movie Download 2019-03-14 18:27:52
134 Zero (2018) WEB-DL Hindi Movie Download 2019-03-14 18:25:05
135 Krrish 1,2,3 Hindi Movie Download 2019-03-14 18:23:56
136 Devil May Cry PC Game PC Games Download 2019-03-14 18:23:21
137 Logan (2017) 720p BluRay English Movie Download 2019-03-14 18:21:56
138 Ralph Breaks the Internet (2018) 720p BluRay Animation Movie Download 2019-03-14 18:20:39
139 Titanic (1997) English Movie Download 2019-03-14 18:19:43
140 The Transporter 3 (2008) English Tv Series Download 2019-03-14 18:18:41
141 The Transporter (2002) English Movie Download 2019-03-14 18:18:01
142 Maari 2 (2018) WEB-HD ESub Tamil & Telegu Movie Download 2019-03-14 18:17:03
143 Fifty Shades Darker (2017) 1080p BluRay English Movie Download 2019-03-14 18:16:12
144 Asura (2018) HDRip Foreign Movie Download 2019-03-14 18:08:03
145 K.G.F: Chapter 1 (2018) Hindi Dubbed Tamil & Telegu Movie Download 2019-03-14 17:55:38
146 Asura (2018) HDRip Foreign Movie Download 2019-03-14 14:47:46
147 How to Train Your Dragon: The Hidden World (2019) HDCAM Animation Movie Download 2019-03-10 11:20:18
148 Babumoshai Bandookbaaz (2017) Hindi Movie Download 2019-03-10 11:02:32
149 Hate Story IV (2018) HDRip Hindi Movie Download 2019-03-09 12:23:57
150 Motu Patlu-King Of Kings (2016) Animation Movie Download 2019-03-09 12:23:26
151 Captain Marvel (2019) HDCAM English Movie Download 2019-03-09 12:20:07
152 Masss (2015) Hindi Dubbed Tamil & Telegu Movie Download 2019-03-07 18:12:58
153 Raid (2018) 1080p BluRay Hindi Movie Download 2019-03-07 18:12:02
154 Bajirao Mastani (2015) Hindi Movie Download 2019-03-07 18:09:29
155 Race 3 (2018) Hindi Movie Download 2019-03-07 18:09:03
156 The Fourth Kind (2009) English Movie Download 2019-03-07 18:07:52
157 Bodyguard (2011) Hindi Movie Download 2019-03-07 18:05:48
158 Holy Faak Hoichoi Season 2 Complete Bangla Tv Series Download 2019-03-07 18:04:27
159 Holy Faak Hoichoi Season 1 Complete Bangla Tv Series Download 2019-03-07 18:02:09
160 Holy Faak (2017) Indian Bangla Movie Download 2019-03-07 18:01:42
161 Sex and Death 101 (2007) English Movie Download 2019-03-07 18:00:28
162 Total Dhamaal (2019) CAMRip Hindi Movie Download 2019-03-07 18:00:03
163 Srirastu Subhamastu (2016) HDrip Tamil & Telegu Movie Download 2019-03-07 17:59:39
164 Kambakkht Ishq (2009) Hindi Movie Download 2019-03-07 17:59:12
165 Thugs of Hindostan (2018) 720p BluRay Hindi Movie Download 2019-03-07 17:58:45
166 Hello! (2019) Season 02 Episodes (01-06) Bangla Tv Series Download 2019-03-05 18:18:10
167 Mersal (2017) Dual Audio Tamil & Telegu Movie Download 2019-03-05 18:13:32
168 Rick and Morty Season 1,2,3 Complete Animation Movie Download 2019-03-05 18:13:04
169 The Pursuit of Happyness (2006) English Movie Download 2019-03-05 18:11:50
170 Fifty Shades of Grey (2015) English Movie Download 2019-03-05 18:11:14
171 Spider-Man: Into the Spider-Verse (2018) Animation Movie Download 2019-03-05 18:10:14
172 The Attacks of 26-11 (2013) Hindi Movie Download 2019-03-05 18:09:45
173 1 Mile to You (2017) English Movie Download 2019-03-05 18:09:14
174 Mission Impossible - Fallout (2018) 1080p BluRay English Movie Download 2019-03-05 18:08:42
175 Devdas (2002) Hindi Movie Download 2019-03-05 18:07:16
176 Fantastic Four Rise of the Silver Surfer (2007) English Movie Download 2019-03-05 18:06:40
177 Night at the Museum (2006) English Movie Download 2019-03-05 18:05:55
178 Begum Jaan (2017) Hindi Movie Download 2019-03-05 18:05:10
179 Holy Faak Hoichoi Season 2 Bangla Tv Series Download 2019-03-05 18:04:43
180 White House Down (2013) English Movie Download 2019-03-05 18:03:29
181 Mektoub, My Love: Canto Uno (2017) English Movie Download 2019-03-05 18:03:05
182 Ant-Man and the Wasp (2018) Dual Audio English Movie Download 2019-03-05 17:52:00
183 Adobe Photoshop 7.0 Software Download 2019-03-05 17:50:07
184 Up (2009) Animation Movie Download 2019-03-01 19:47:56
185 Uri The Surgical Strike (2019) WEB-DL Hindi Movie Download 2019-03-01 19:47:20
186 Venom (2018) 720p BluRay English Movie Download 2019-03-01 19:45:52
187 Sanam Re (2016) DVDRip Hindi Movie Download 2019-03-01 19:44:29
188 Tiger Zinda Hai (2017) 720p BluRay Hindi Movie Download 2019-03-01 19:41:48
189 Vinaya Vidheya Rama (2019) WEB-HD Tamil & Telegu Movie Download 2019-03-01 19:41:08
190 Dil To Pagal Hai (1997) 1080p BluRay Hindi Movie Download 2019-03-01 19:40:38
191 The Ghazi Attack (2017) 720p BluRay Hindi Movie Download 2019-03-01 19:40:16
192 The Boss Baby (2017) 720p BluRay Animation Movie Download 2019-03-01 19:39:25
193 Sultan (2016) Hindi Movie Download 2019-03-01 19:38:49
194 Mom (2017) 720p BluRay Hindi Movie Download 2019-03-01 19:34:06
195 Golmaal Again (2017) 720p BluRay Hindi Movie Download 2019-03-01 19:33:13
196 Rishtey (2002) Hindi Movie Download 2019-03-01 19:32:41
197 3 Idiots (2009) Hindi Movie Download 2019-03-01 19:32:12
198 Doubt (2008) English Movie Download 2019-03-01 19:30:21
199 Assalamualaikum Beijing (2014) Foreign Movie Download 2019-03-01 19:29:53
200 The Iron Lady (2011) English Movie Download 2019-03-01 19:29:23
201 Jannat 2 (2012) Hindi Movie Download 2019-03-01 19:28:52
202 Aquaman (2018) HDRip English Movie Download 2019-03-01 19:10:44
203 Operation Red Sea (2018) Foreign Movie Download 2019-03-01 19:09:19
204 Operation Cobra (2019) WEB DL Hindi Movie Download 2019-03-01 19:08:35
205 Taranath Tantrik (2019) Season 1 Bangla Tv Series Download 2019-03-01 19:08:00
206 K.G.F: Chapter 1 (2018) Hindi Dubbed Tamil & Telegu Movie Download 2019-03-01 19:04:18
207 Raja The Great (2017) HDRip Tamil & Telegu Movie Download 2019-03-01 19:00:26
208 Genius (2018) Hindi Movie Download 2019-02-24 18:15:20
209 Doctor Strange (2016) English Movie Download 2019-02-24 18:14:47
210 The Longest Yard (2005) English Movie Download 2019-02-24 18:10:46
211 Avengers Infinity War (2018) English Movie Download 2019-02-24 18:09:30
212 Ralph Breaks the Internet (2018) Animation Movie Download 2019-02-24 18:08:42
213 The Mummy (2017) English Movie Download 2019-02-24 17:55:59
214 Grand Theft Auto V PC Game PC Games Download 2019-02-24 17:55:13
215 Baaghi 2 (2018) Hindi Movie Download 2019-02-24 17:53:41
216 Holy Faak Hoichoi Season 2 Complete Bangla Tv Series Download 2019-02-24 17:53:18
217 Holy Faak Hoichoi Season 1 Complete Indian Bangla Movie Download 2019-02-24 17:52:51
218 Van Helsing (2004) English Movie Download 2019-02-24 17:51:55
219 Gabbar is Back (2015) Hindi Movie Download 2019-02-24 17:47:39
220 Raees (2017) Hindi Movie Download 2019-02-24 17:46:09
221 Behind Enemy Lines (2001) English Movie Download 2019-02-12 18:07:48
222 The Mummy (2017) English Movie Download 2019-02-12 18:06:47
223 Hostel 2 (2007) English Movie Download 2019-02-12 18:06:05
224 Mastizaade (2016) Hindi Movie Download 2019-02-12 18:05:04
225 Hungama (2003) Hindi Movie Download 2019-02-12 18:04:38
226 Forrest Gump (1994) English Movie Download 2019-02-08 16:21:05
227 Fast and Furious 3 Tokyo Drift (2006) English Movie Download 2019-02-08 16:19:50
228 Damini (1993) Hindi Movie Download 2019-02-08 16:19:22
229 2012 (2009) 1080p BluRay English Movie Download 2019-01-23 20:12:17
230 Befikre (2016) Hindi Movie Download 2019-01-23 20:11:37
231 Fantastic Four Rise of the Silver Surfer (2007) Hindi Dubbed English Movie Download 2019-01-23 20:10:44
232 Srimanthudu (2015) Hindi Dubbed Tamil & Telegu Movie Download 2019-01-23 20:10:03
233 Ek Tha Tiger (2012) Hindi Movie Download 2019-01-23 20:09:37
234 Stree (2018) 720p BluRay Hindi Movie Download 2019-01-23 20:08:57
235 Titanic (1997) English Movie Download 2019-01-23 20:08:29
236 Sherlock Season 1,2,3,4 Complete English Tv Series Download 2019-01-23 20:07:56
237 Om Shanti Om (2007) Hindi Movie Download 2019-01-23 20:07:25
238 Race 3 (2018) Hindi Movie Download 2019-01-23 20:05:55
239 Naked (2017) English Movie Download 2019-01-23 20:05:23
240 Chennai Express (2013) Hindi Movie Download 2019-01-23 20:04:27
241 Fantastic Four -Rise of the Silver Surfer (2007) English Movie Download 2019-01-23 20:03:40
242 WinRAR & WinZIP Software Software Download 2019-01-23 20:03:11
243 Salaam-E-Ishq (2007) Hindi Movie Download 2019-01-23 20:01:34
244 Kaal (2005) Hindi Movie Download 2019-01-23 20:00:41
245 Dhanbad Blues (2018) Season 1 Hoichoi Originals Bangla Tv Series Download 2019-01-20 18:32:55
246 Shaolin Soccer (2001) English Movie Download 2019-01-20 18:30:43
247 Hachi - A Dog's Tale (2009) 720p BluRay English Movie Download 2019-01-20 18:29:34
248 Call of Duty Black Ops II PC Game PC Games Download 2019-01-20 18:28:43
249 Ted 2 (2015) 720p BluRay English Movie Download 2019-01-19 19:48:56
250 Fifty Shades Freed (2018) English Movie Download 2019-01-19 19:47:11
251 Dance Plus Hindi Tv Series Download 2019-01-19 19:46:25
252 Mowgli Legend of the Jungle (2018) WEB-DL English Movie Download 2019-01-19 19:45:24
253 Kabhi Alvida Naa Kehna (2006) Hindi Movie Download 2019-01-19 19:44:25
254 The Dark Knight Rises (2012) 1080p BluRay English Movie Download 2019-01-19 19:43:54
255 Sarkar (2018) HDRip Tamil & Telegu Movie Download 2019-01-19 19:43:25
256 Maari 2 (2018) DVDScr Tamil & Telegu Movie Download 2019-01-19 19:41:57
257 Chander Pahar (2013) DVDRip Indian Bangla Movie Download 2019-01-19 19:40:49
258 Hello Guru Prema Kosame (2018) Tamil & Telegu Movie Download 2019-01-19 19:38:08
259 Crisscross (2018) WEB-DL Indian Bangla Movie Download 2019-01-19 19:33:13
260 How to Train Your Dragon The Hidden World (2019) HDCAM Animation Movie Download 2019-01-19 19:32:22
261 Me Before You (2016) 720p BluRay English Movie Download 2019-01-19 19:31:41
262 Bird Box (2018) WEB-DL English Movie Download 2019-01-19 19:31:10
263 Satyameva Jayate (2018) WEB-DL Hindi Movie Download 2019-01-19 19:30:23
264 Jism 2 (2012) Hindi Movie Download 2019-01-15 18:35:23
265 Savyasachi (2018) HDRip Tamil & Telegu Movie Download 2019-01-15 18:29:30
266 Battlefield V PC Game PC Games Download 2019-01-15 18:27:28
267 Baazaar (2018) WEB-DL Hindi Movie Download 2019-01-15 18:26:16
268 Sarkar (2018) HDRip Tamil & Telegu Movie Download 2019-01-15 18:25:54
269 The Mummy (1999) Hindi Dubbed English Movie Download 2019-01-15 18:25:09
270 Mowgli Legend of the Jungle (2018) English Movie Download 2019-01-15 18:23:29
271 The Kapil Sharma Show (2019) Season 2 Hindi Tv Series Download 2019-01-15 18:22:37
272 Veer (2010) Hindi Movie Download 2019-01-15 18:17:08
273 K.G.F Chapter 1 (2018) New DVDScr Tamil & Telegu Movie Download 2019-01-15 18:15:29
274 Mowgli Legend of the Jungle (2018) English Movie Download 2019-01-12 13:04:11
275 Veer (2010) Hindi Movie Download 2019-01-12 13:03:08
276 Batman v Superman Dawn of Justice (2016) English Movie Download 2019-01-08 18:32:28
277 Charlie (2015) HDRip Tamil & Telegu Movie Download 2019-01-08 18:30:45
278 Boys Over Flowers Season 1 Complete Korean Movie Download 2019-01-08 18:30:11
279 Hachi - A Dog's Tale (2009) English Movie Download 2019-01-07 14:15:27
280 RoboCop (2014) 1080p BluRay English Movie Download 2019-01-07 13:24:20
281 RoboCop 3 (1993) 720p BluRay English Movie Download 2019-01-07 13:24:03
282 RoboCop 2 (1990) 720p BluRay English Movie Download 2019-01-07 13:23:46
283 RoboCop (1987) 720p BluRay English Movie Download 2019-01-07 13:23:30
284 Dhoom 3 (2013) Hindi Movie Download 2019-01-07 13:21:29
285 Gangs of Wasseypur II (2012) Hindi Movie Download 2019-01-07 13:20:41
286 Gangs of Wasseypur I (2012) Hindi Movie Download 2019-01-07 13:20:29
287 Bharat Ane Nenu (2018) Tamil & Telegu Movie Download 2019-01-07 13:05:19
288 The Punisher Season 1 Complete English Tv Series Download 2019-01-07 13:04:31
289 Avengers Infinity War (2018) English Movie Download 2019-01-07 13:03:09
290 Ant-Man and the Wasp (2018) English Movie Download 2019-01-07 12:59:39
291 Tumbbad (2018) Hindi Movie Download 2019-01-07 12:59:01
292 Ralph Breaks the Internet (2018) DVDScr Animation Movie Download 2019-01-07 12:58:18
293 Charlie (2015) Tamil & Telegu Movie Download 2019-01-07 12:57:16
294 Gabbar is Back (2015) Hindi Movie Download 2019-01-07 12:56:23
295 Alik Sukh (2013) Indian Bangla Movie Download 2019-01-07 12:55:49
296 96 (2018) HDRip Tamil & Telegu Movie Download 2018-12-31 11:44:14
297 The Mummy (1999) Hindi Dubbed English Movie Download 2018-12-31 11:39:37
298 Hotel Transylvania 3 (2018) 1080p BluRay Animation Movie Download 2018-12-31 11:35:14
299 Da Vinci's Demons Season 3 Complete English Tv Series Download 2018-12-31 11:34:15
300 Da Vinci's Demons Season 1,2 English Tv Series Download 2018-12-31 11:33:43
301 Overlord (2018) HDCAM English Movie Download 2018-12-31 11:31:10
302 Selection Day (2018) Season 1 Hindi Tv Series Download 2018-12-31 11:30:08
303 Watchmen (2009) 1080p BluRay English Movie Download 2018-12-31 11:29:15
304 Queen (2013) Hindi Movie Download 2018-12-31 10:58:50
305 The Avengers (2012) 720p BluRay English Movie Download 2018-12-29 18:23:14
306 Singham (2011) Hindi Movie Download 2018-12-29 18:22:23
307 Thor Ragnarok (2017) 720p BluRay English Movie Download 2018-12-29 18:21:59
308 Taare Zameen Par (2007) 1080p BluRay Hindi Movie Download 2018-12-29 18:21:32
309 Suicide Squad Hell to Pay (2018) 1080p BluRa English Movie Download 2018-12-29 18:21:07
310 Simmba (2018) CAMRip Hindi Movie Download 2018-12-29 18:19:50
311 Johnny English Strikes Again (2018) 1080p BluRay English Movie Download 2018-12-29 18:19:12
312 Grand Masti (2013) 720p BluRay Hindi Movie Download 2018-12-29 18:18:37
313 Van Helsing (2004) 720p BluRay English Movie Download 2018-12-29 18:18:09
314 Raja The Great (2017) HDRip Tamil & Telegu Movie Download 2018-12-29 18:17:29
315 Sanju (2018) 1080p BluRay Hindi Movie Download 2018-12-29 18:17:00
316 Fidaa (2017) Telugu HDRip Tamil & Telegu Movie Download 2018-12-29 18:16:26
317 The Twilight Movies Collection English Movie Download 2018-12-29 18:16:00
318 Devdas (2002) Hindi Movie Download 2018-12-29 18:12:01
319 Stardust (2007) 1080p BluRay English Movie Download 2018-12-29 18:11:24
320 The Gifted Season 1 Complete English Tv Series Download 2018-12-29 18:10:19
321 The Boss Baby (2017) 720p BluRay Animation Movie Download 2018-12-29 18:09:25
322 Dear John (2010) 720p BluRay English Movie Download 2018-12-29 18:08:53
323 Andhadhun (2018) WEB-DL Hindi Movie Download 2018-12-29 18:08:28
324 American Pie (1999-2012) All English Movie Download 2018-12-27 17:03:19
325 Veer-Zaara (2004) Hindi Movie Download 2018-12-27 16:57:26
326 K.G.F Chapter 1 (2018) CamRip (Hindi) Tamil & Telegu Movie Download 2018-12-27 16:56:54
327 Zero (2018) DVDScr Hindi Movie Download 2018-12-27 16:54:45
328 The Little Mermaid (2018) English Movie Download 2018-12-27 16:53:55
329 Fast and Furious 6 (2013) Hindi Dubbed English Movie Download 2018-12-27 16:52:42
330 The Fate Of The Furious (2017) Hindi Dubbed English Movie Download 2018-12-27 16:50:28
331 Kuch Kuch Hota Hai (1998) Hindi Movie Download 2018-12-27 16:48:13
332 Young Sheldon Season 1 Complete English Tv Series Download 2018-12-24 18:01:19
333 Ek Villain (2014) 1080p BluRay Hindi Movie Download 2018-12-24 18:00:37
334 Vikings Season 1,2,3,4 Complete English Tv Series Download 2018-12-24 17:59:50
335 Guardians of the Galaxy Vol. 2 (2017) 1080p BluRay English Movie Download 2018-12-17 18:30:55
336 Brothers (2015) 720p BluRay Hindi Movie Download 2018-12-17 18:29:46
337 Argo (2012) 1080p BluRay English Movie Download 2018-12-17 18:28:27
338 Mental 2 (2018) Hindi Dubbed Tamil & Telegu Movie Download 2018-12-17 18:24:46
339 Dil To Pagal Hai (1997) DvdRip Hindi Movie Download 2018-12-17 18:21:19
340 Ae Dil Hai Mushkil (2016) 1080p BluRay Hindi Movie Download 2018-12-17 18:20:41
341 Mausam (2011) Hindi Movie Download 2018-12-17 18:20:05
342 Baazaar (2018) CAMRip Hindi Movie Download 2018-12-17 18:19:08
343 Jalebi The Taste of Everlasting Love (2018) Hindi Movie Download 2018-12-17 18:18:29
344 Veer-Zaara (2004) Hindi Movie Download 2018-12-17 18:17:59
345 Kuch Kuch Hota Hai (1998) Hindi Movie Download 2018-12-17 18:17:31
346 Geetha Govindam (2018) WEB-HD Tamil & Telegu Movie Download 2018-12-17 18:17:03
347 Sanam Teri Kasam (2015) 1080p BluRay Hindi Movie Download 2018-12-17 18:16:44
348 Don 2 (2011) 1080p BluRay Hindi Movie Download 2018-12-17 18:16:07
349 Movavi Video Converter Software Download 2018-12-17 18:15:35
350 Action Jackson (2014) Hindi Movie Download 2018-12-17 18:14:35
351 Sarkar (2005) Hindi Movie Download 2018-12-17 18:14:07
352 The Dictator (2012) 720p BluRay English Movie Download 2018-12-17 18:10:17
353 Stree (2018) 720p BluRay Hindi Movie Download 2018-12-17 18:09:06
354 2.0 (2018) DVDScr Hindi Movie Download 2018-12-17 18:08:41
355 Batman v Superman Dawn of Justice (2016) English Movie Download 2018-12-17 18:07:13
356 Rab Ne Bana Di Jodi (2008) 720p BluRay Hindi Movie Download 2018-12-11 18:15:06
357 Angels & Demons (2009) 720p BluRay English Movie Download 2018-12-11 18:11:12
358 The Dictator (2012) 720p BluRay English Movie Download 2018-12-03 19:26:06
359 Sarkar (2005) Hindi Movie Download 2018-12-03 19:23:40
360 Sarkar (2018) CAMRip Tamil & Telegu Movie Download 2018-12-03 19:22:39
361 Action Jackson (2014) Hindi Movie Download 2018-12-03 19:19:59
362 The Raid Redemption (2011) English Movie Download 2018-11-28 18:15:05
363 Fanaa (2006) Hindi Movie Download 2018-11-27 11:43:20
364 Soorma (2018) WEB-DL Hindi Movie Download 2018-11-27 11:42:33
365 Forrest Gump (1994) 720p BluRay English Movie Download 2018-11-27 11:29:45
366 Rockstar (2011) 1080p BluRay Hindi Movie Download 2018-11-27 11:28:31
367 Sarkar (2018) CAMRip Tamil & Telegu Movie Download 2018-11-27 11:27:18
368 Srimanthudu (2015) Hindi Dubbed Tamil & Telegu Movie Download 2018-11-27 11:25:41
369 The Meg (2018) 1080p BluRay English Movie Download 2018-11-27 11:25:03
370 The House with a Clock in Its Walls (2018) HDCAM English Movie Download 2018-11-27 11:24:30
371 The Dark Knight (2008) English Movie Download 2018-11-27 11:23:56
372 Mirzapur Season 1 Web Series Hindi Tv Series Download 2018-11-27 10:50:58
373 Ant-Man and the Wasp (2018) 1080p BluRay English Movie Download 2018-11-27 10:49:42
374 The Huntsman Winter's War (2016) 720p BluRay English Movie Download 2018-11-27 10:49:12
375 Incredibles 2 (2018) 1080p BluRay Animation Movie Download 2018-11-27 10:36:07
376 Marshall (2017) 720p BluRay English Movie Download 2018-11-27 10:34:20

Movie Request


Find Us On Facebook